createdAt,value
2022-08-24T00:00:43.496Z,80.42
2022-08-24T00:01:43.488Z,80.32
2022-08-24T00:02:43.556Z,80.32
2022-08-24T00:03:43.460Z,81.13
2022-08-24T00:04:43.449Z,81.10
2022-08-24T00:05:43.441Z,81.29
2022-08-24T00:06:43.433Z,81.39
2022-08-24T00:07:43.418Z,81.29
2022-08-24T00:08:43.401Z,81.77
2022-08-24T00:09:43.394Z,81.29
2022-08-24T00:10:43.382Z,81.29
2022-08-24T00:11:43.370Z,81.39
2022-08-24T00:12:43.357Z,81.54
2022-08-24T00:13:43.348Z,81.73
2022-08-24T00:14:43.332Z,82.51
2022-08-24T00:15:43.315Z,82.32
2022-08-24T00:16:43.398Z,82.70
2022-08-24T00:17:43.295Z,82.90
2022-08-24T00:18:43.284Z,82.32
2022-08-24T00:19:43.269Z,82.32
2022-08-24T00:20:45.213Z,82.51
2022-08-24T00:21:43.248Z,82.22
2022-08-24T00:22:43.235Z,82.32
2022-08-24T00:23:43.222Z,82.32
2022-08-24T00:24:43.208Z,82.41
2022-08-24T00:25:43.197Z,82.41
2022-08-24T00:26:43.191Z,82.41
2022-08-24T00:27:43.174Z,81.93
2022-08-24T00:28:43.165Z,81.54
2022-08-24T00:29:43.149Z,81.25
2022-08-24T00:30:43.141Z,80.87
2022-08-24T00:31:43.157Z,81.05
2022-08-24T00:32:43.114Z,81.25
2022-08-24T00:33:43.108Z,81.25
2022-08-24T00:34:58.340Z,81.45
2022-08-24T00:35:43.080Z,81.05
2022-08-24T00:36:43.062Z,80.96
2022-08-24T00:37:43.054Z,80.96
2022-08-24T00:38:43.046Z,80.38
2022-08-24T00:39:43.059Z,80.87
2022-08-24T00:40:43.018Z,80.96
2022-08-24T00:41:43.009Z,81.54
2022-08-24T00:42:42.995Z,80.47
2022-08-24T00:43:42.982Z,80.96
2022-08-24T00:44:42.969Z,81.35
2022-08-24T00:45:43.027Z,81.35
2022-08-24T00:46:42.951Z,81.25
2022-08-24T00:47:42.936Z,81.40
2022-08-24T00:48:42.925Z,81.70
2022-08-24T00:49:42.909Z,81.30
2022-08-24T00:50:42.899Z,81.40
2022-08-24T00:51:42.882Z,81.50
2022-08-24T00:52:42.874Z,81.60
2022-08-24T00:53:42.863Z,81.70
2022-08-24T00:54:46.144Z,81.98
2022-08-24T00:55:42.838Z,81.98
2022-08-24T00:56:42.829Z,81.70
2022-08-24T00:57:42.864Z,81.50
2022-08-24T00:58:42.801Z,81.02
2022-08-24T00:59:42.788Z,81.30
2022-08-24T01:00:42.826Z,81.02
2022-08-24T01:01:42.964Z,81.21
2022-08-24T01:02:42.834Z,81.60
2022-08-24T01:03:42.736Z,81.40
2022-08-24T01:04:42.735Z,81.30
2022-08-24T01:05:42.717Z,81.60
2022-08-24T01:06:42.697Z,81.79
2022-08-24T01:07:42.689Z,81.98
2022-08-24T01:08:42.679Z,82.08
2022-08-24T01:09:42.662Z,81.50
2022-08-24T01:10:42.651Z,81.46
2022-08-24T01:11:42.641Z,81.56
2022-08-24T01:12:42.629Z,81.79
2022-08-24T01:13:42.619Z,82.18
2022-08-24T01:14:42.605Z,82.18
2022-08-24T01:15:42.599Z,82.18
2022-08-24T01:16:42.633Z,82.28
2022-08-24T01:17:42.567Z,81.98
2022-08-24T01:18:42.557Z,81.30
2022-08-24T01:19:42.546Z,80.92
2022-08-24T01:20:42.530Z,81.40
2022-08-24T01:21:42.519Z,81.40
2022-08-24T01:22:42.506Z,81.40
2022-08-24T01:23:42.490Z,81.30
2022-08-24T01:24:42.484Z,81.50
2022-08-24T01:25:42.467Z,81.50
2022-08-24T01:26:42.454Z,81.50
2022-08-24T01:27:42.445Z,81.30
2022-08-24T01:28:42.433Z,81.60
2022-08-24T01:29:42.422Z,81.70
2022-08-24T01:30:42.412Z,81.46
2022-08-24T01:31:42.470Z,81.70
2022-08-24T01:32:42.391Z,81.89
2022-08-24T01:33:42.370Z,82.37
2022-08-24T01:34:42.358Z,81.98
2022-08-24T01:35:42.345Z,81.75
2022-08-24T01:36:42.332Z,81.98
2022-08-24T01:37:42.319Z,81.98
2022-08-24T01:38:42.308Z,81.95
2022-08-24T01:39:42.339Z,82.33
2022-08-24T01:40:42.285Z,82.23
2022-08-24T01:41:42.268Z,81.56
2022-08-24T01:42:42.258Z,81.85
2022-08-24T01:43:42.244Z,82.33
2022-08-24T01:44:42.233Z,82.33
2022-08-24T01:45:42.221Z,81.95
2022-08-24T01:46:42.289Z,82.14
2022-08-24T01:47:42.192Z,82.14
2022-08-24T01:48:42.182Z,82.14
2022-08-24T01:49:42.172Z,81.95
2022-08-24T01:50:42.154Z,81.98
2022-08-24T01:51:42.144Z,81.37
2022-08-24T01:53:03.972Z,81.37
2022-08-24T01:53:42.117Z,81.46
2022-08-24T01:54:43.395Z,81.46
2022-08-24T01:55:42.095Z,81.37
2022-08-24T01:56:42.082Z,81.95
2022-08-24T01:57:42.070Z,82.14
2022-08-24T01:58:42.054Z,82.04
2022-08-24T01:59:42.042Z,82.23
2022-08-24T02:00:42.035Z,81.85
2022-08-24T02:01:42.075Z,81.75
2022-08-24T02:02:42.078Z,82.04
2022-08-24T02:03:41.993Z,82.04
2022-08-24T02:04:41.983Z,82.23
2022-08-24T02:05:41.968Z,82.23
2022-08-24T02:06:41.964Z,82.04
2022-08-24T02:07:41.945Z,82.23
2022-08-24T02:08:41.938Z,82.23
2022-08-24T02:09:41.919Z,82.04
2022-08-24T02:10:41.910Z,82.14
2022-08-24T02:11:41.898Z,82.14
2022-08-24T02:12:41.879Z,82.33
2022-08-24T02:13:41.869Z,82.20
2022-08-24T02:14:41.856Z,82.97
2022-08-24T02:15:41.870Z,83.26
2022-08-24T02:16:41.834Z,83.45
2022-08-24T02:17:41.822Z,84.32
2022-08-24T02:18:41.808Z,84.61
2022-08-24T02:19:41.797Z,85.10
2022-08-24T02:20:41.782Z,84.90
2022-08-24T02:21:41.773Z,85.39
2022-08-24T02:22:41.758Z,84.90
2022-08-24T02:23:41.746Z,85.39
2022-08-24T02:24:41.733Z,84.80
2022-08-24T02:25:41.720Z,85.19
2022-08-24T02:26:41.708Z,85.10
2022-08-24T02:27:41.695Z,85.10
2022-08-24T02:28:41.684Z,85.10
2022-08-24T02:29:41.672Z,84.90
2022-08-24T02:30:41.752Z,84.90
2022-08-24T02:31:41.641Z,85.48
2022-08-24T02:32:41.635Z,85.58
2022-08-24T02:33:41.622Z,85.39
2022-08-24T02:34:41.603Z,85.97
2022-08-24T02:35:41.588Z,85.68
2022-08-24T02:36:41.587Z,86.06
2022-08-24T02:37:43.434Z,85.58
2022-08-24T02:38:41.555Z,85.73
2022-08-24T02:39:41.545Z,86.11
2022-08-24T02:40:41.532Z,86.21
2022-08-24T02:41:41.519Z,86.51
2022-08-24T02:42:41.503Z,86.60
2022-08-24T02:43:41.493Z,86.79
2022-08-24T02:44:41.483Z,86.69
2022-08-24T02:45:41.464Z,86.89
2022-08-24T02:46:41.514Z,86.60
2022-08-24T02:47:41.433Z,86.79
2022-08-24T02:48:41.428Z,86.89
2022-08-24T02:49:41.412Z,87.41
2022-08-24T02:50:41.404Z,87.41
2022-08-24T02:51:45.060Z,86.02
2022-08-24T02:52:41.376Z,86.21
2022-08-24T02:53:41.366Z,86.79
2022-08-24T02:54:41.349Z,86.51
2022-08-24T02:55:41.339Z,86.31
2022-08-24T02:56:41.324Z,86.11
2022-08-24T02:57:41.306Z,86.41
2022-08-24T02:58:41.303Z,86.99
2022-08-24T02:59:41.289Z,86.99
2022-08-24T03:00:41.273Z,87.47
2022-08-24T03:01:41.365Z,87.08
2022-08-24T03:02:41.299Z,86.89
2022-08-24T03:03:41.236Z,86.79
2022-08-24T03:04:41.221Z,86.31
2022-08-24T03:05:41.210Z,86.11
2022-08-24T03:06:41.191Z,86.69
2022-08-24T03:07:41.183Z,87.57
2022-08-24T03:08:41.170Z,87.08
2022-08-24T03:09:41.161Z,87.08
2022-08-24T03:10:41.144Z,87.08
2022-08-24T03:11:45.311Z,86.99
2022-08-24T03:12:41.116Z,87.57
2022-08-24T03:13:41.102Z,87.18
2022-08-24T03:14:41.090Z,87.47
2022-08-24T03:15:41.102Z,87.95
2022-08-24T03:16:41.071Z,87.95
2022-08-24T03:17:41.136Z,87.95
2022-08-24T03:18:41.042Z,87.85
2022-08-24T03:19:41.031Z,87.85
2022-08-24T03:20:41.021Z,87.66
2022-08-24T03:21:41.001Z,87.95
2022-08-24T03:22:40.989Z,88.53
2022-08-24T03:23:40.975Z,88.15
2022-08-24T03:24:40.959Z,88.43
2022-08-24T03:25:40.955Z,89.11
2022-08-24T03:26:44.061Z,88.82
2022-08-24T03:27:40.925Z,89.11
2022-08-24T03:28:40.911Z,88.53
2022-08-24T03:29:40.901Z,88.29
2022-08-24T03:30:42.054Z,89.17
2022-08-24T03:31:40.873Z,89.07
2022-08-24T03:32:40.852Z,88.87
2022-08-24T03:33:40.845Z,88.87
2022-08-24T03:34:40.828Z,89.45
2022-08-24T03:35:40.821Z,89.65
2022-08-24T03:36:40.808Z,89.94
2022-08-24T03:37:40.796Z,90.23
2022-08-24T03:38:40.780Z,89.75
2022-08-24T03:39:40.769Z,90.13
2022-08-24T03:40:40.754Z,90.13
2022-08-24T03:41:40.744Z,90.52
2022-08-24T03:42:40.724Z,90.52
2022-08-24T03:43:40.719Z,91.09
2022-08-24T03:44:40.699Z,91.00
2022-08-24T03:45:40.722Z,91.09
2022-08-24T03:46:40.677Z,91.67
2022-08-24T03:47:40.666Z,91.77
2022-08-24T03:48:40.652Z,92.35
2022-08-24T03:49:40.635Z,93.08
2022-08-24T03:50:40.626Z,93.08
2022-08-24T03:51:40.604Z,93.85
2022-08-24T03:52:40.599Z,94.14
2022-08-24T03:53:42.936Z,95.01
2022-08-24T03:54:40.572Z,95.30
2022-08-24T03:55:40.559Z,95.45
2022-08-24T03:56:40.543Z,95.50
2022-08-24T03:57:40.534Z,95.50
2022-08-24T03:58:40.520Z,95.30
2022-08-24T03:59:46.171Z,95.40
2022-08-24T04:00:40.489Z,95.88
2022-08-24T04:01:40.587Z,96.08
2022-08-24T04:02:40.509Z,95.88
2022-08-24T04:03:40.458Z,95.30
2022-08-24T04:04:40.437Z,94.92
2022-08-24T04:05:40.427Z,94.92
2022-08-24T04:06:40.414Z,95.11
2022-08-24T04:07:40.408Z,94.82
2022-08-24T04:08:40.386Z,95.01
2022-08-24T04:09:40.378Z,95.01
2022-08-24T04:10:40.353Z,94.72
2022-08-24T04:11:41.465Z,95.50
2022-08-24T04:12:40.345Z,95.40
2022-08-24T04:13:40.330Z,95.40
2022-08-24T04:14:40.306Z,96.36
2022-08-24T04:15:40.299Z,96.61
2022-08-24T04:16:40.444Z,96.31
2022-08-24T04:17:40.277Z,96.99
2022-08-24T04:18:40.261Z,96.80
2022-08-24T04:19:40.238Z,97.38
2022-08-24T04:20:40.224Z,97.77
2022-08-24T04:21:40.214Z,97.57
2022-08-24T04:22:40.200Z,97.47
2022-08-24T04:23:47.314Z,97.57
2022-08-24T04:24:40.168Z,98.63
2022-08-24T04:25:40.158Z,98.34
2022-08-24T04:26:44.256Z,98.83
2022-08-24T04:27:40.142Z,98.44
2022-08-24T04:28:40.119Z,98.25
2022-08-24T04:29:40.107Z,98.54
2022-08-24T04:30:40.090Z,98.54
2022-08-24T04:31:40.186Z,98.63
2022-08-24T04:32:40.064Z,97.86
2022-08-24T04:33:40.053Z,97.47
2022-08-24T04:34:40.034Z,97.47
2022-08-24T04:35:40.026Z,97.19
2022-08-24T04:36:40.011Z,97.67
2022-08-24T04:37:39.994Z,97.38
2022-08-24T04:38:39.980Z,97.96
2022-08-24T04:39:39.969Z,98.25
2022-08-24T04:40:39.959Z,98.34
2022-08-24T04:41:39.945Z,98.34
2022-08-24T04:42:39.928Z,99.60
2022-08-24T04:43:39.915Z,99.11
2022-08-24T04:44:39.902Z,98.73
2022-08-24T04:45:39.953Z,98.25
2022-08-24T04:46:39.875Z,98.63
2022-08-24T04:47:39.861Z,98.83
2022-08-24T04:48:39.845Z,98.54
2022-08-24T04:49:39.831Z,98.54
2022-08-24T04:50:39.819Z,98.54
2022-08-24T04:51:39.807Z,98.73
2022-08-24T04:52:39.794Z,98.15
2022-08-24T04:53:39.781Z,97.86
2022-08-24T04:54:39.765Z,98.78
2022-08-24T04:55:39.753Z,98.25
2022-08-24T04:56:39.736Z,98.58
2022-08-24T04:57:39.723Z,99.26
2022-08-24T04:58:39.710Z,99.16
2022-08-24T04:59:39.695Z,99.26
2022-08-24T05:00:39.747Z,98.63
2022-08-24T05:01:39.675Z,98.54
2022-08-24T05:02:44.229Z,98.63
2022-08-24T05:03:39.639Z,97.77
2022-08-24T05:04:39.627Z,97.47
2022-08-24T05:05:39.617Z,97.57
2022-08-24T05:06:39.601Z,97.47
2022-08-24T05:07:39.584Z,97.57
2022-08-24T05:08:39.573Z,97.09
2022-08-24T05:09:39.564Z,97.28
2022-08-24T05:10:39.550Z,97.28
2022-08-24T05:11:39.533Z,97.19
2022-08-24T05:12:39.517Z,96.41
2022-08-24T05:13:39.506Z,96.80
2022-08-24T05:14:39.499Z,97.28
2022-08-24T05:15:39.479Z,97.57
2022-08-24T05:16:39.606Z,97.38
2022-08-24T05:17:39.454Z,96.89
2022-08-24T05:18:39.440Z,97.19
2022-08-24T05:19:39.423Z,97.19
2022-08-24T05:20:39.412Z,96.41
2022-08-24T05:21:40.123Z,96.89
2022-08-24T05:22:39.384Z,97.28
2022-08-24T05:23:39.371Z,96.99
2022-08-24T05:24:39.358Z,97.04
2022-08-24T05:25:39.339Z,97.72
2022-08-24T05:26:39.328Z,97.96
2022-08-24T05:27:39.312Z,97.57
2022-08-24T05:28:39.303Z,97.86
2022-08-24T05:29:39.292Z,97.19
2022-08-24T05:30:42.450Z,96.80
2022-08-24T05:31:39.339Z,97.19
2022-08-24T05:32:39.259Z,96.80
2022-08-24T05:33:39.231Z,96.26
2022-08-24T05:34:39.230Z,95.93
2022-08-24T05:35:39.214Z,95.83
2022-08-24T05:36:39.199Z,95.11
2022-08-24T05:37:39.179Z,95.06
2022-08-24T05:38:39.186Z,95.50
2022-08-24T05:39:39.159Z,95.35
2022-08-24T05:40:39.145Z,95.88
2022-08-24T05:41:39.133Z,95.83
2022-08-24T05:42:39.115Z,96.41
2022-08-24T05:43:39.102Z,96.51
2022-08-24T05:44:39.088Z,96.26
2022-08-24T05:45:39.076Z,95.54
2022-08-24T05:46:39.137Z,95.93
2022-08-24T05:47:39.050Z,96.12
2022-08-24T05:48:39.034Z,96.41
2022-08-24T05:49:41.521Z,96.61
2022-08-24T05:50:39.003Z,96.51
2022-08-24T05:51:38.991Z,96.22
2022-08-24T05:52:38.980Z,96.61
2022-08-24T05:53:38.968Z,96.31
2022-08-24T05:54:38.955Z,96.51
2022-08-24T05:55:38.940Z,96.51
2022-08-24T05:56:38.923Z,96.22
2022-08-24T05:57:38.913Z,95.93
2022-08-24T05:58:38.901Z,96.03
2022-08-24T05:59:38.888Z,95.25
2022-08-24T06:00:38.875Z,95.83
2022-08-24T06:01:43.369Z,95.45
2022-08-24T06:02:38.958Z,95.83
2022-08-24T06:03:38.833Z,94.87
2022-08-24T06:04:38.814Z,94.96
2022-08-24T06:05:38.801Z,94.58
2022-08-24T06:06:38.792Z,94.68
2022-08-24T06:07:38.778Z,95.45
2022-08-24T06:08:41.504Z,95.06
2022-08-24T06:09:38.753Z,95.16
2022-08-24T06:10:38.769Z,96.03
2022-08-24T06:11:38.724Z,95.45
2022-08-24T06:12:38.712Z,94.77
2022-08-24T06:13:38.698Z,94.48
2022-08-24T06:14:38.686Z,94.29
2022-08-24T06:15:38.669Z,93.23
2022-08-24T06:16:38.763Z,93.80
2022-08-24T06:17:38.858Z,93.37
2022-08-24T06:18:38.627Z,92.79
2022-08-24T06:19:38.616Z,91.92
2022-08-24T06:20:38.606Z,91.83
2022-08-24T06:21:38.593Z,91.83
2022-08-24T06:22:38.580Z,91.73
2022-08-24T06:23:38.565Z,90.95
2022-08-24T06:24:38.556Z,90.86
2022-08-24T06:25:38.539Z,90.95
2022-08-24T06:26:38.529Z,90.81
2022-08-24T06:27:38.512Z,90.42
2022-08-24T06:28:38.498Z,90.13
2022-08-24T06:29:38.497Z,90.33
2022-08-24T06:30:38.472Z,90.23
2022-08-24T06:31:39.989Z,90.33
2022-08-24T06:32:38.449Z,90.23
2022-08-24T06:33:38.434Z,90.03
2022-08-24T06:34:38.418Z,89.75
2022-08-24T06:35:38.407Z,89.98
2022-08-24T06:36:39.248Z,90.08
2022-08-24T06:37:38.383Z,90.27
2022-08-24T06:38:38.369Z,89.45
2022-08-24T06:39:38.356Z,89.35
2022-08-24T06:40:38.353Z,88.19
2022-08-24T06:41:38.332Z,87.61
2022-08-24T06:42:38.316Z,87.99
2022-08-24T06:43:38.303Z,88.39
2022-08-24T06:44:38.292Z,87.71
2022-08-24T06:45:38.279Z,87.17
2022-08-24T06:46:38.310Z,86.88
2022-08-24T06:47:38.254Z,86.69
2022-08-24T06:48:38.243Z,86.88
2022-08-24T06:49:38.228Z,87.75
2022-08-24T06:50:38.212Z,87.95
2022-08-24T06:51:38.206Z,86.98
2022-08-24T06:52:38.194Z,87.65
2022-08-24T06:53:38.181Z,87.60
2022-08-24T06:54:38.167Z,86.15
2022-08-24T06:55:38.157Z,85.76
2022-08-24T06:56:38.147Z,84.21
2022-08-24T06:57:38.135Z,85.47
2022-08-24T06:58:38.130Z,84.11
2022-08-24T06:59:38.112Z,84.35
2022-08-24T07:00:38.101Z,83.77
2022-08-24T07:01:38.160Z,82.45
2022-08-24T07:02:38.155Z,81.72
2022-08-24T07:03:38.067Z,80.21
2022-08-24T07:04:38.073Z,78.69
2022-08-24T07:05:38.053Z,77.31
2022-08-24T07:06:38.041Z,76.22
2022-08-24T07:07:38.029Z,72.86
2022-08-24T07:08:38.027Z,70.50
2022-08-24T07:09:38.014Z,68.84
2022-08-24T07:10:38.007Z,67.51
2022-08-24T07:11:38.000Z,65.95
2022-08-24T07:12:38.001Z,62.88
2022-08-24T07:13:37.985Z,61.25
2022-08-24T07:14:37.981Z,60.96
2022-08-24T07:15:38.065Z,59.84
2022-08-24T07:16:37.973Z,59.67
2022-08-24T07:17:37.967Z,58.62
2022-08-24T07:18:37.962Z,57.25
2022-08-24T07:19:37.970Z,57.18
2022-08-24T07:20:37.954Z,56.86
2022-08-24T07:21:37.947Z,56.30
2022-08-24T07:22:37.947Z,55.64
2022-08-24T07:23:41.840Z,54.39
2022-08-24T07:24:37.932Z,55.41
2022-08-24T07:25:37.934Z,54.93
2022-08-24T07:26:37.940Z,55.83
2022-08-24T07:27:37.932Z,55.71
2022-08-24T07:28:37.926Z,56.03
2022-08-24T07:29:50.518Z,55.86
2022-08-24T07:30:37.937Z,55.52
2022-08-24T07:31:38.046Z,54.08
2022-08-24T07:32:37.921Z,53.05
2022-08-24T07:33:37.927Z,53.07
2022-08-24T07:34:37.918Z,52.48
2022-08-24T07:35:37.917Z,51.99
2022-08-24T07:36:42.261Z,51.62
2022-08-24T07:37:41.239Z,51.84
2022-08-24T07:38:37.918Z,50.36
2022-08-24T07:39:37.921Z,50.04
2022-08-24T07:41:01.736Z,49.97
2022-08-24T07:41:56.791Z,49.75
2022-08-24T07:42:37.919Z,51.15
2022-08-24T07:43:40.933Z,51.18
2022-08-24T07:44:37.919Z,49.82
2022-08-24T07:45:37.922Z,50.09
2022-08-24T07:46:38.012Z,49.77
2022-08-24T07:47:41.672Z,49.97
2022-08-24T07:48:37.922Z,50.93
2022-08-24T07:49:39.547Z,50.36
2022-08-24T07:50:37.927Z,50.41
2022-08-24T07:51:37.985Z,49.52
2022-08-24T07:52:37.935Z,49.15
2022-08-24T07:53:52.996Z,48.78
2022-08-24T07:54:37.936Z,47.22
2022-08-24T07:55:45.892Z,47.32
2022-08-24T07:56:37.936Z,46.75
2022-08-24T07:57:37.945Z,46.18
2022-08-24T07:58:37.954Z,45.41
2022-08-24T07:59:37.964Z,45.61
2022-08-24T08:00:37.951Z,45.49
2022-08-24T08:01:38.010Z,46.80
2022-08-24T08:02:37.989Z,46.74
2022-08-24T08:03:37.960Z,46.03
2022-08-24T08:04:37.969Z,45.97
2022-08-24T08:05:37.972Z,43.91
2022-08-24T08:06:37.974Z,43.62
2022-08-24T08:07:37.989Z,44.51
2022-08-24T08:08:37.986Z,43.82
2022-08-24T08:09:37.988Z,43.91
2022-08-24T08:10:37.991Z,42.63
2022-08-24T08:11:37.997Z,43.71
2022-08-24T08:12:38.002Z,44.60
2022-08-24T08:13:38.089Z,44.21
2022-08-24T08:14:38.010Z,43.42
2022-08-24T08:15:38.050Z,43.91
2022-08-24T08:16:38.021Z,43.64
2022-08-24T08:17:38.027Z,43.36
2022-08-24T08:18:38.024Z,42.99
2022-08-24T08:19:38.033Z,42.19
2022-08-24T08:20:38.042Z,42.09
2022-08-24T08:21:38.049Z,42.37
2022-08-24T08:22:38.048Z,42.49
2022-08-24T08:23:38.052Z,41.31
2022-08-24T08:24:38.070Z,41.30
2022-08-24T08:25:38.065Z,41.55
2022-08-24T08:26:38.069Z,42.07
2022-08-24T08:27:38.097Z,42.49
2022-08-24T08:28:38.269Z,42.11
2022-08-24T08:29:38.087Z,40.92
2022-08-24T08:30:38.145Z,41.52
2022-08-24T08:31:38.103Z,41.73
2022-08-24T08:32:38.104Z,42.15
2022-08-24T08:33:38.109Z,42.39
2022-08-24T08:34:38.120Z,42.31
2022-08-24T08:35:38.122Z,41.93
2022-08-24T08:36:38.134Z,40.96
2022-08-24T08:37:38.154Z,41.75
2022-08-24T08:38:38.153Z,41.38
2022-08-24T08:39:38.146Z,41.20
2022-08-24T08:40:38.154Z,40.24
2022-08-24T08:41:38.161Z,39.44
2022-08-24T08:42:38.167Z,39.44
2022-08-24T08:43:38.174Z,40.34
2022-08-24T08:44:38.182Z,39.64
2022-08-24T08:45:38.186Z,40.10
2022-08-24T08:46:40.841Z,41.04
2022-08-24T08:47:38.196Z,42.37
2022-08-24T08:48:38.202Z,44.09
2022-08-24T08:49:38.208Z,44.82
2022-08-24T08:50:38.209Z,46.95
2022-08-24T08:51:38.215Z,45.60
2022-08-24T08:52:38.216Z,47.85
2022-08-24T08:53:38.221Z,49.28
2022-08-24T08:54:38.218Z,49.85
2022-08-24T08:55:38.230Z,49.92
2022-08-24T08:56:38.225Z,50.88
2022-08-24T08:57:38.229Z,50.37
2022-08-24T08:58:38.228Z,51.52
2022-08-24T08:59:38.227Z,51.59
2022-08-24T09:00:38.227Z,52.25
2022-08-24T09:01:46.461Z,52.25
2022-08-24T09:02:38.226Z,53.83
2022-08-24T09:03:38.222Z,54.58
2022-08-24T09:04:38.361Z,55.35
2022-08-24T09:05:38.223Z,55.54
2022-08-24T09:06:38.227Z,54.17
2022-08-24T09:07:38.225Z,54.46
2022-08-24T09:08:38.214Z,55.64
2022-08-24T09:09:38.212Z,55.61
2022-08-24T09:10:38.209Z,55.81
2022-08-24T09:11:38.202Z,55.91
2022-08-24T09:12:38.199Z,54.33
2022-08-24T09:13:38.201Z,54.14
2022-08-24T09:14:38.196Z,55.58
2022-08-24T09:15:38.192Z,55.49
2022-08-24T09:16:38.273Z,55.76
2022-08-24T09:17:38.181Z,56.54
2022-08-24T09:18:38.192Z,56.63
2022-08-24T09:19:38.173Z,56.63
2022-08-24T09:20:38.171Z,55.85
2022-08-24T09:21:38.166Z,56.15
2022-08-24T09:22:38.162Z,55.39
2022-08-24T09:23:38.157Z,55.78
2022-08-24T09:24:38.151Z,55.10
2022-08-24T09:25:38.146Z,54.77
2022-08-24T09:26:38.149Z,54.80
2022-08-24T09:27:38.134Z,55.29
2022-08-24T09:28:38.138Z,55.10
2022-08-24T09:29:38.125Z,55.00
2022-08-24T09:30:38.164Z,55.10
2022-08-24T09:31:38.116Z,54.31
2022-08-24T09:32:39.229Z,54.41
2022-08-24T09:33:38.106Z,54.90
2022-08-24T09:34:38.100Z,55.49
2022-08-24T09:35:38.102Z,55.16
2022-08-24T09:36:38.088Z,55.29
2022-08-24T09:37:41.725Z,55.39
2022-08-24T09:38:38.077Z,54.11
2022-08-24T09:39:38.071Z,53.92
2022-08-24T09:40:38.076Z,53.82
2022-08-24T09:41:38.059Z,54.21
2022-08-24T09:42:38.050Z,54.90
2022-08-24T09:43:38.051Z,54.41
2022-08-24T09:44:38.044Z,53.82
2022-08-24T09:45:38.091Z,53.53
2022-08-24T09:46:38.028Z,53.72
2022-08-24T09:47:38.022Z,53.82
2022-08-24T09:48:38.020Z,55.68
2022-08-24T09:49:38.010Z,55.10
2022-08-24T09:50:38.003Z,56.57
2022-08-24T09:51:38.000Z,56.07
2022-08-24T09:52:37.994Z,56.37
2022-08-24T09:53:37.988Z,55.88
2022-08-24T09:54:37.980Z,55.78
2022-08-24T09:55:37.975Z,55.49
2022-08-24T09:56:37.974Z,55.51
2022-08-24T09:57:59.477Z,54.14
2022-08-24T09:58:37.959Z,53.55
2022-08-24T09:59:37.952Z,53.85
2022-08-24T10:00:37.946Z,53.19
2022-08-24T10:01:37.991Z,53.87
2022-08-24T10:02:38.023Z,53.87
2022-08-24T10:03:38.760Z,54.56
2022-08-24T10:04:38.052Z,55.35
2022-08-24T10:05:38.015Z,54.29
2022-08-24T10:06:37.909Z,54.19
2022-08-24T10:07:37.907Z,53.90
2022-08-24T10:08:37.905Z,53.63
2022-08-24T10:09:37.900Z,53.63
2022-08-24T10:10:37.888Z,52.08
2022-08-24T10:11:37.881Z,50.29
2022-08-24T10:12:37.878Z,51.67
2022-08-24T10:13:37.869Z,50.39
2022-08-24T10:14:37.859Z,52.33
2022-08-24T10:15:37.856Z,52.23
2022-08-24T10:16:37.915Z,50.56
2022-08-24T10:17:37.846Z,50.73
2022-08-24T10:18:37.839Z,52.03
2022-08-24T10:19:37.834Z,53.80
2022-08-24T10:20:37.827Z,53.70
2022-08-24T10:21:37.821Z,52.94
2022-08-24T10:22:37.811Z,52.94
2022-08-24T10:23:37.813Z,52.77
2022-08-24T10:24:37.806Z,52.50
2022-08-24T10:25:37.800Z,52.21
2022-08-24T10:26:37.793Z,50.93
2022-08-24T10:27:37.785Z,49.77
2022-08-24T10:28:37.776Z,50.07
2022-08-24T10:29:37.778Z,51.54
2022-08-24T10:30:37.786Z,51.05
2022-08-24T10:31:37.808Z,51.97
2022-08-24T10:32:37.754Z,51.57
2022-08-24T10:33:37.754Z,52.06
2022-08-24T10:34:37.748Z,50.59
2022-08-24T10:35:37.740Z,50.49
2022-08-24T10:36:37.731Z,50.42
2022-08-24T10:37:37.732Z,49.92
2022-08-24T10:38:37.724Z,49.82
2022-08-24T10:39:37.723Z,50.31
2022-08-24T10:40:37.773Z,49.45
2022-08-24T10:41:38.805Z,49.35
2022-08-24T10:42:37.700Z,49.45
2022-08-24T10:43:37.703Z,49.45
2022-08-24T10:44:37.693Z,48.88
2022-08-24T10:45:37.737Z,48.49
2022-08-24T10:46:37.680Z,47.80
2022-08-24T10:47:37.686Z,48.47
2022-08-24T10:48:37.671Z,48.07
2022-08-24T10:49:37.676Z,48.07
2022-08-24T10:50:37.660Z,48.96
2022-08-24T10:51:37.661Z,48.98
2022-08-24T10:52:37.654Z,49.08
2022-08-24T10:53:37.645Z,49.18
2022-08-24T10:54:37.645Z,49.18
2022-08-24T10:55:37.635Z,47.01
2022-08-24T10:56:37.628Z,46.72
2022-08-24T10:57:37.640Z,46.91
2022-08-24T10:58:37.621Z,46.52
2022-08-24T10:59:37.615Z,47.01
2022-08-24T11:00:37.615Z,46.72
2022-08-24T11:01:37.707Z,47.70
2022-08-24T11:02:37.650Z,48.98
2022-08-24T11:03:37.597Z,48.19
2022-08-24T11:04:37.591Z,48.19
2022-08-24T11:05:37.592Z,47.80
2022-08-24T11:06:37.582Z,47.50
2022-08-24T11:07:37.576Z,47.43
2022-08-24T11:08:37.572Z,46.44
2022-08-24T11:09:37.592Z,46.81
2022-08-24T11:10:37.573Z,46.12
2022-08-24T11:11:40.458Z,46.72
2022-08-24T11:12:37.556Z,47.19
2022-08-24T11:13:37.546Z,46.87
2022-08-24T11:14:37.544Z,47.56
2022-08-24T11:15:37.546Z,47.06
2022-08-24T11:16:37.576Z,47.85
2022-08-24T11:17:37.533Z,47.56
2022-08-24T11:18:37.535Z,49.33
2022-08-24T11:19:37.645Z,48.64
2022-08-24T11:20:37.517Z,47.28
2022-08-24T11:21:37.512Z,46.77
2022-08-24T11:22:37.505Z,46.67
2022-08-24T11:23:37.504Z,45.19
2022-08-24T11:24:37.497Z,45.88
2022-08-24T11:25:37.496Z,45.39
2022-08-24T11:26:37.487Z,45.47
2022-08-24T11:27:37.485Z,46.94
2022-08-24T11:28:37.483Z,46.55
2022-08-24T11:29:37.481Z,46.65
2022-08-24T11:30:37.469Z,46.55
2022-08-24T11:31:37.479Z,47.14
2022-08-24T11:32:37.455Z,48.22
2022-08-24T11:33:37.452Z,49.01
2022-08-24T11:34:37.446Z,48.54
2022-08-24T11:35:37.446Z,47.75
2022-08-24T11:36:37.442Z,47.16
2022-08-24T11:37:37.433Z,47.68
2022-08-24T11:38:37.427Z,47.95
2022-08-24T11:39:37.421Z,47.09
2022-08-24T11:40:37.419Z,46.00
2022-08-24T11:41:37.414Z,45.41
2022-08-24T11:42:37.411Z,45.12
2022-08-24T11:43:37.403Z,45.39
2022-08-24T11:44:37.397Z,45.98
2022-08-24T11:45:37.394Z,46.45
2022-08-24T11:46:37.448Z,47.34
2022-08-24T11:47:37.386Z,46.75
2022-08-24T11:48:37.487Z,46.03
2022-08-24T11:49:37.378Z,45.74
2022-08-24T11:50:37.372Z,46.33
2022-08-24T11:51:37.363Z,46.72
2022-08-24T11:52:37.359Z,45.74
2022-08-24T11:54:37.348Z,46.33
2022-08-24T11:55:46.899Z,47.02
2022-08-24T11:56:37.340Z,47.12
2022-08-24T11:57:37.334Z,46.75
2022-08-24T11:58:37.327Z,45.96
2022-08-24T11:59:37.325Z,45.74
2022-08-24T12:00:37.326Z,45.45
2022-08-24T12:01:44.476Z,45.84
2022-08-24T12:02:37.477Z,45.54
2022-08-24T12:03:37.304Z,45.84
2022-08-24T12:04:37.295Z,46.62
2022-08-24T12:05:37.301Z,46.33
2022-08-24T12:06:37.291Z,44.95
2022-08-24T12:07:37.282Z,44.95
2022-08-24T12:08:37.273Z,45.62
2022-08-24T12:09:37.268Z,46.50
2022-08-24T12:10:37.270Z,47.12
2022-08-24T12:11:37.263Z,48.30
2022-08-24T12:12:37.264Z,48.42
2022-08-24T12:13:37.257Z,46.65
2022-08-24T12:14:37.243Z,45.39
2022-08-24T12:15:37.240Z,44.60
2022-08-24T12:16:37.313Z,45.00
2022-08-24T12:17:37.226Z,45.29
2022-08-24T12:18:37.224Z,45.09
2022-08-24T12:19:37.219Z,45.61
2022-08-24T12:20:37.219Z,45.51
2022-08-24T12:21:37.209Z,44.92
2022-08-24T12:22:37.201Z,45.61
2022-08-24T12:23:37.200Z,45.41
2022-08-24T12:24:37.192Z,44.92
2022-08-24T12:25:37.191Z,45.63
2022-08-24T12:26:37.185Z,44.62
2022-08-24T12:27:37.198Z,43.86
2022-08-24T12:28:37.173Z,45.14
2022-08-24T12:29:37.170Z,45.24
2022-08-24T12:30:37.177Z,44.62
2022-08-24T12:31:37.235Z,45.14
2022-08-24T12:32:37.150Z,45.21
2022-08-24T12:33:37.717Z,45.31
2022-08-24T12:34:37.148Z,46.22
2022-08-24T12:35:37.144Z,47.01
2022-08-24T12:36:37.138Z,47.01
2022-08-24T12:37:37.131Z,45.24
2022-08-24T12:38:37.128Z,44.47
2022-08-24T12:39:37.119Z,44.18
2022-08-24T12:40:37.118Z,43.88
2022-08-24T12:41:37.113Z,44.87
2022-08-24T12:42:37.109Z,45.06
2022-08-24T12:43:37.115Z,43.48
2022-08-24T12:44:37.099Z,42.99
2022-08-24T12:45:37.098Z,43.88
2022-08-24T12:46:37.202Z,43.48
2022-08-24T12:47:37.088Z,42.99
2022-08-24T12:48:37.080Z,43.09
2022-08-24T12:49:37.081Z,43.17
2022-08-24T12:50:37.071Z,43.37
2022-08-24T12:51:37.086Z,43.66
2022-08-24T12:52:37.062Z,43.56
2022-08-24T12:53:37.060Z,44.15